sensor_id;sensor_type;location;lat;lon;timestamp;pressure;altitude;pressure_sealevel;temperature;humidity
66681;BME280;53575;51.366;12.350;2023-02-23T00:00:08;99930.63;;;7.14;100.00
66681;BME280;53575;51.366;12.350;2023-02-23T00:02:46;99931.44;;;7.09;100.00
66681;BME280;53575;51.366;12.350;2023-02-23T00:05:12;99933.19;;;7.12;100.00
66681;BME280;53575;51.366;12.350;2023-02-23T00:07:38;99928.00;;;7.06;100.00
66681;BME280;53575;51.366;12.350;2023-02-23T00:10:09;99929.72;;;6.99;100.00
66681;BME280;53575;51.366;12.350;2023-02-23T00:12:36;99928.81;;;6.93;100.00
66681;BME280;53575;51.366;12.350;2023-02-23T00:15:01;99929.69;;;6.87;100.00
66681;BME280;53575;51.366;12.350;2023-02-23T00:17:27;99928.81;;;6.85;100.00
66681;BME280;53575;51.366;12.350;2023-02-23T00:19:54;99930.50;;;6.78;100.00
66681;BME280;53575;51.366;12.350;2023-02-23T00:22:19;99922.72;;;6.72;100.00
66681;BME280;53575;51.366;12.350;2023-02-23T00:24:45;99923.56;;;6.70;100.00
66681;BME280;53575;51.366;12.350;2023-02-23T00:27:12;99925.28;;;6.71;100.00
66681;BME280;53575;51.366;12.350;2023-02-23T00:29:42;99924.44;;;6.69;100.00
66681;BME280;53575;51.366;12.350;2023-02-23T00:32:07;99926.16;;;6.68;100.00
66681;BME280;53575;51.366;12.350;2023-02-23T00:34:34;99928.75;;;6.70;100.00
66681;BME280;53575;51.366;12.350;2023-02-23T00:37:00;99928.78;;;6.73;100.00
66681;BME280;53575;51.366;12.350;2023-02-23T00:39:27;99934.78;;;6.67;100.00
66681;BME280;53575;51.366;12.350;2023-02-23T00:41:54;99928.75;;;6.71;100.00
66681;BME280;53575;51.366;12.350;2023-02-23T00:44:20;99925.28;;;6.66;100.00
66681;BME280;53575;51.366;12.350;2023-02-23T00:46:48;99928.75;;;6.70;100.00
66681;BME280;53575;51.366;12.350;2023-02-23T00:49:16;99933.97;;;6.74;100.00
66681;BME280;53575;51.366;12.350;2023-02-23T00:51:41;99927.94;;;6.75;100.00
66681;BME280;53575;51.366;12.350;2023-02-23T00:54:09;99922.72;;;6.74;100.00
66681;BME280;53575;51.366;12.350;2023-02-23T00:56:35;99927.03;;;6.78;100.00
66681;BME280;53575;51.366;12.350;2023-02-23T00:59:00;99931.38;;;6.79;100.00
66681;BME280;53575;51.366;12.350;2023-02-23T01:01:26;99934.00;;;6.85;100.00
66681;BME280;53575;51.366;12.350;2023-02-23T01:03:52;99936.59;;;6.80;100.00
66681;BME280;53575;51.366;12.350;2023-02-23T01:06:17;99936.56;;;6.77;100.00
66681;BME280;53575;51.366;12.350;2023-02-23T01:08:46;99940.03;;;6.78;100.00
66681;BME280;53575;51.366;12.350;2023-02-23T01:11:20;99940.91;;;6.77;100.00
66681;BME280;53575;51.366;12.350;2023-02-23T01:13:47;99937.41;;;6.75;100.00
66681;BME280;53575;51.366;12.350;2023-02-23T01:16:18;99935.69;;;6.72;100.00
66681;BME280;53575;51.366;12.350;2023-02-23T01:18:44;99929.59;;;6.67;100.00
66681;BME280;53575;51.366;12.350;2023-02-23T01:23:40;99933.03;;;6.60;100.00
66681;BME280;53575;51.366;12.350;2023-02-23T01:26:14;99929.56;;;6.55;100.00
66681;BME280;53575;51.366;12.350;2023-02-23T01:28:39;99936.50;;;6.57;100.00
66681;BME280;53575;51.366;12.350;2023-02-23T01:31:08;99922.63;;;6.49;100.00
66681;BME280;53575;51.366;12.350;2023-02-23T01:33:34;99921.75;;;6.52;100.00
66681;BME280;53575;51.366;12.350;2023-02-23T01:35:59;99914.81;;;6.45;100.00
66681;BME280;53575;51.366;12.350;2023-02-23T01:38:25;99917.41;;;6.39;100.00
66681;BME280;53575;51.366;12.350;2023-02-23T01:40:50;99915.66;;;6.38;100.00
66681;BME280;53575;51.366;12.350;2023-02-23T01:43:19;99916.56;;;6.41;100.00
66681;BME280;53575;51.366;12.350;2023-02-23T01:45:52;99912.22;;;6.45;100.00
66681;BME280;53575;51.366;12.350;2023-02-23T01:48:23;99914.81;;;6.45;100.00
66681;BME280;53575;51.366;12.350;2023-02-23T01:53:22;99912.28;;;6.58;100.00
66681;BME280;53575;51.366;12.350;2023-02-23T01:55:53;99909.66;;;6.60;100.00
66681;BME280;53575;51.366;12.350;2023-02-23T01:58:22;99904.50;;;6.63;100.00
66681;BME280;53575;51.366;12.350;2023-02-23T02:00:55;99898.44;;;6.67;100.00
66681;BME280;53575;51.366;12.350;2023-02-23T02:03:34;99897.59;;;6.68;100.00
66681;BME280;53575;51.366;12.350;2023-02-23T02:06:00;99903.66;;;6.70;100.00
66681;BME280;53575;51.366;12.350;2023-02-23T02:08:31;99892.41;;;6.68;100.00
66681;BME280;53575;51.366;12.350;2023-02-23T02:10:58;99893.25;;;6.67;100.00
66681;BME280;53575;51.366;12.350;2023-02-23T02:13:29;99890.66;;;6.67;100.00
66681;BME280;53575;51.366;12.350;2023-02-23T02:16:05;99892.41;;;6.65;100.00
66681;BME280;53575;51.366;12.350;2023-02-23T02:24:22;99880.28;;;6.64;100.00
66681;BME280;53575;51.366;12.350;2023-02-23T02:35:07;99881.22;;;6.88;100.00
66681;BME280;53575;51.366;12.350;2023-02-23T02:45:26;99874.28;;;6.96;100.00
66681;BME280;53575;51.366;12.350;2023-02-23T02:48:10;99869.97;;;6.96;100.00
66681;BME280;53575;51.366;12.350;2023-02-23T02:50:55;99875.13;;;6.98;100.00
66681;BME280;53575;51.366;12.350;2023-02-23T02:56:33;99872.56;;;7.13;100.00
66681;BME280;53575;51.366;12.350;2023-02-23T02:59:05;99876.03;;;7.03;100.00
66681;BME280;53575;51.366;12.350;2023-02-23T03:01:31;99875.16;;;6.96;100.00
66681;BME280;53575;51.366;12.350;2023-02-23T03:04:23;99868.22;;;6.88;100.00
66681;BME280;53575;51.366;12.350;2023-02-23T03:07:19;99874.25;;;6.90;100.00
66681;BME280;53575;51.366;12.350;2023-02-23T03:25:00;99864.75;;;7.01;100.00
66681;BME280;53575;51.366;12.350;2023-02-23T03:28:24;99873.44;;;7.18;100.00
66681;BME280;53575;51.366;12.350;2023-02-23T03:33:59;99873.44;;;7.32;100.00
66681;BME280;53575;51.366;12.350;2023-02-23T03:36:51;99876.03;;;7.24;100.00
66681;BME280;53575;51.366;12.350;2023-02-23T03:39:42;99881.25;;;7.26;100.00
66681;BME280;53575;51.366;12.350;2023-02-23T03:42:31;99874.31;;;7.29;100.00
66681;BME280;53575;51.366;12.350;2023-02-23T03:45:19;99876.06;;;7.37;100.00
66681;BME280;53575;51.366;12.350;2023-02-23T03:48:06;99876.03;;;7.43;100.00
66681;BME280;53575;51.366;12.350;2023-02-23T03:50:54;99878.66;;;7.44;100.00
66681;BME280;53575;51.366;12.350;2023-02-23T03:54:19;99882.09;;;7.54;100.00
66681;BME280;53575;51.366;12.350;2023-02-23T03:57:09;99881.22;;;7.64;100.00
66681;BME280;53575;51.366;12.350;2023-02-23T03:59:59;99886.41;;;7.69;100.00
66681;BME280;53575;51.366;12.350;2023-02-23T04:02:48;99889.03;;;7.72;100.00
66681;BME280;53575;51.366;12.350;2023-02-23T04:05:36;99886.41;;;7.63;100.00
66681;BME280;53575;51.366;12.350;2023-02-23T04:08:24;99893.38;;;7.61;100.00
66681;BME280;53575;51.366;12.350;2023-02-23T04:11:18;99889.91;;;7.55;100.00
66681;BME280;53575;51.366;12.350;2023-02-23T04:14:18;99887.31;;;7.60;100.00
66681;BME280;53575;51.366;12.350;2023-02-23T04:16:45;99892.50;;;7.62;100.00
66681;BME280;53575;51.366;12.350;2023-02-23T04:19:11;99891.63;;;7.61;100.00
66681;BME280;53575;51.366;12.350;2023-02-23T04:21:36;99891.66;;;7.60;100.00
66681;BME280;53575;51.366;12.350;2023-02-23T04:24:02;99883.81;;;7.63;100.00
66681;BME280;53575;51.366;12.350;2023-02-23T04:26:27;99882.09;;;7.63;100.00
66681;BME280;53575;51.366;12.350;2023-02-23T04:28:53;99887.28;;;7.65;100.00
66681;BME280;53575;51.366;12.350;2023-02-23T04:31:18;99895.09;;;7.69;100.00
66681;BME280;53575;51.366;12.350;2023-02-23T04:33:44;99890.75;;;7.71;100.00
66681;BME280;53575;51.366;12.350;2023-02-23T04:36:09;99896.81;;;7.76;100.00
66681;BME280;53575;51.366;12.350;2023-02-23T04:38:34;99887.25;;;7.74;100.00
66681;BME280;53575;51.366;12.350;2023-02-23T04:41:00;99895.06;;;7.74;100.00
66681;BME280;53575;51.366;12.350;2023-02-23T04:43:25;99888.16;;;7.71;100.00
66681;BME280;53575;51.366;12.350;2023-02-23T04:45:51;99892.47;;;7.80;100.00
66681;BME280;53575;51.366;12.350;2023-02-23T04:48:17;99890.75;;;7.79;100.00
66681;BME280;53575;51.366;12.350;2023-02-23T04:50:42;99900.28;;;7.83;100.00
66681;BME280;53575;51.366;12.350;2023-02-23T04:53:08;99889.00;;;7.81;100.00
66681;BME280;53575;51.366;12.350;2023-02-23T04:55:33;99891.59;;;7.73;100.00
66681;BME280;53575;51.366;12.350;2023-02-23T04:57:59;99885.56;;;7.65;100.00
66681;BME280;53575;51.366;12.350;2023-02-23T05:00:26;99887.28;;;7.72;100.00
66681;BME280;53575;51.366;12.350;2023-02-23T05:02:53;99882.97;;;7.68;100.00
66681;BME280;53575;51.366;12.350;2023-02-23T05:05:19;99884.69;;;7.65;100.00
66681;BME280;53575;51.366;12.350;2023-02-23T05:07:45;99879.50;;;7.63;100.00
66681;BME280;53575;51.366;12.350;2023-02-23T05:10:10;99884.72;;;7.63;100.00
66681;BME280;53575;51.366;12.350;2023-02-23T05:12:36;99889.88;;;7.58;100.00
66681;BME280;53575;51.366;12.350;2023-02-23T05:15:02;99884.69;;;7.57;100.00
66681;BME280;53575;51.366;12.350;2023-02-23T05:17:27;99889.91;;;7.54;100.00
66681;BME280;53575;51.366;12.350;2023-02-23T05:19:53;99882.09;;;7.54;100.00
66681;BME280;53575;51.366;12.350;2023-02-23T05:22:18;99884.69;;;7.54;100.00
66681;BME280;53575;51.366;12.350;2023-02-23T05:24:43;99884.69;;;7.54;100.00
66681;BME280;53575;51.366;12.350;2023-02-23T05:27:09;99884.72;;;7.48;100.00
66681;BME280;53575;51.366;12.350;2023-02-23T05:29:35;99876.03;;;7.49;100.00
66681;BME280;53575;51.366;12.350;2023-02-23T05:32:01;99882.97;;;7.44;100.00
66681;BME280;53575;51.366;12.350;2023-02-23T05:34:26;99876.88;;;7.40;100.00
66681;BME280;53575;51.366;12.350;2023-02-23T05:36:52;99874.28;;;7.40;100.00
66681;BME280;53575;51.366;12.350;2023-02-23T05:39:19;99871.69;;;7.28;100.00
66681;BME280;53575;51.366;12.350;2023-02-23T05:41:44;99882.97;;;7.27;100.00
66681;BME280;53575;51.366;12.350;2023-02-23T05:44:09;99884.69;;;7.28;100.00
66681;BME280;53575;51.366;12.350;2023-02-23T05:46:35;99886.44;;;7.27;100.00
66681;BME280;53575;51.366;12.350;2023-02-23T05:49:01;99877.78;;;7.41;100.00
66681;BME280;53575;51.366;12.350;2023-02-23T05:51:28;99879.50;;;7.51;100.00
66681;BME280;53575;51.366;12.350;2023-02-23T05:53:54;99882.09;;;7.42;100.00
66681;BME280;53575;51.366;12.350;2023-02-23T05:56:19;99883.84;;;7.35;100.00
66681;BME280;53575;51.366;12.350;2023-02-23T05:58:49;99888.16;;;7.35;100.00
66681;BME280;53575;51.366;12.350;2023-02-23T06:01:15;99887.31;;;7.39;100.00
66681;BME280;53575;51.366;12.350;2023-02-23T06:03:42;99887.28;;;7.40;100.00
66681;BME280;53575;51.366;12.350;2023-02-23T06:06:07;99891.63;;;7.40;100.00
66681;BME280;53575;51.366;12.350;2023-02-23T06:08:33;99893.38;;;7.41;100.00
66681;BME280;53575;51.366;12.350;2023-02-23T06:10:58;99901.16;;;7.36;100.00
66681;BME280;53575;51.366;12.350;2023-02-23T06:13:24;99900.31;;;7.42;100.00
66681;BME280;53575;51.366;12.350;2023-02-23T06:15:49;99908.09;;;7.32;100.00
66681;BME280;53575;51.366;12.350;2023-02-23T06:18:15;99908.97;;;7.35;100.00
66681;BME280;53575;51.366;12.350;2023-02-23T06:20:42;99901.19;;;7.33;100.00
66681;BME280;53575;51.366;12.350;2023-02-23T06:23:08;99912.44;;;7.23;100.00
66681;BME280;53575;51.366;12.350;2023-02-23T06:25:33;99905.47;;;7.17;100.00
66681;BME280;53575;51.366;12.350;2023-02-23T06:27:59;99912.41;;;7.09;100.00
66681;BME280;53575;51.366;12.350;2023-02-23T06:30:24;99914.13;;;7.13;100.00
66681;BME280;53575;51.366;12.350;2023-02-23T06:32:50;99912.44;;;7.23;100.00
66681;BME280;53575;51.366;12.350;2023-02-23T06:35:16;99915.00;;;7.20;100.00
66681;BME280;53575;51.366;12.350;2023-02-23T06:37:41;99915.88;;;7.20;100.00
66681;BME280;53575;51.366;12.350;2023-02-23T06:40:08;99922.84;;;7.29;100.00
66681;BME280;53575;51.366;12.350;2023-02-23T06:42:33;99915.88;;;7.36;100.00
66681;BME280;53575;51.366;12.350;2023-02-23T06:45:00;99917.63;;;7.33;100.00
66681;BME280;53575;51.366;12.350;2023-02-23T06:47:26;99922.81;;;7.32;100.00
66681;BME280;53575;51.366;12.350;2023-02-23T06:49:51;99931.50;;;7.42;100.00
66681;BME280;53575;51.366;12.350;2023-02-23T06:52:17;99928.03;;;7.50;100.00
66681;BME280;53575;51.366;12.350;2023-02-23T06:54:42;99926.31;;;7.55;100.00
66681;BME280;53575;51.366;12.350;2023-02-23T06:57:08;99928.91;;;7.55;100.00
66681;BME280;53575;51.366;12.350;2023-02-23T06:59:34;99933.25;;;7.64;100.00
66681;BME280;53575;51.366;12.350;2023-02-23T07:02:00;99934.09;;;7.88;100.00
66681;BME280;53575;51.366;12.350;2023-02-23T07:04:26;99934.09;;;7.83;100.00
66681;BME280;53575;51.366;12.350;2023-02-23T07:06:51;99931.47;;;7.85;100.00
66681;BME280;53575;51.366;12.350;2023-02-23T07:09:17;99921.06;;;7.81;100.00
66681;BME280;53575;51.366;12.350;2023-02-23T07:11:42;99934.06;;;7.92;100.00
66681;BME280;53575;51.366;12.350;2023-02-23T07:14:11;99930.59;;;7.96;100.00
66681;BME280;53575;51.366;12.350;2023-02-23T07:16:36;99938.38;;;8.09;100.00
66681;BME280;53575;51.366;12.350;2023-02-23T07:19:04;99933.16;;;8.18;100.00
66681;BME280;53575;51.366;12.350;2023-02-23T07:21:30;99944.41;;;8.26;100.00
66681;BME280;53575;51.366;12.350;2023-02-23T07:23:59;99940.06;;;8.31;100.00
66681;BME280;53575;51.366;12.350;2023-02-23T07:26:25;99943.50;;;8.35;100.00
66681;BME280;53575;51.366;12.350;2023-02-23T07:28:51;99948.72;;;8.39;100.00
66681;BME280;53575;51.366;12.350;2023-02-23T07:31:17;99947.88;;;8.37;100.00
66681;BME280;53575;51.366;12.350;2023-02-23T07:33:43;99951.34;;;8.42;100.00
66681;BME280;53575;51.366;12.350;2023-02-23T07:36:09;99956.47;;;8.58;100.00
66681;BME280;53575;51.366;12.350;2023-02-23T07:38:34;99959.00;;;8.77;99.76
66681;BME280;53575;51.366;12.350;2023-02-23T07:41:01;99959.91;;;8.75;99.72
66681;BME280;53575;51.366;12.350;2023-02-23T07:43:27;99960.75;;;8.75;99.67
66681;BME280;53575;51.366;12.350;2023-02-23T07:45:53;99956.38;;;8.84;99.78
66681;BME280;53575;51.366;12.350;2023-02-23T07:48:20;99964.13;;;8.99;98.64
66681;BME280;53575;51.366;12.350;2023-02-23T07:50:45;99963.19;;;9.08;97.67
66681;BME280;53575;51.366;12.350;2023-02-23T07:53:11;99964.09;;;9.02;97.81
66681;BME280;53575;51.366;12.350;2023-02-23T07:55:37;99956.22;;;9.11;97.53
66681;BME280;53575;51.366;12.350;2023-02-23T07:58:04;99967.53;;;9.07;97.37
66681;BME280;53575;51.366;12.350;2023-02-23T08:00:30;99961.44;;;9.16;97.00
66681;BME280;53575;51.366;12.350;2023-02-23T08:02:56;99970.06;;;9.22;96.80
66681;BME280;53575;51.366;12.350;2023-02-23T08:05:22;99961.38;;;9.25;96.61
66681;BME280;53575;51.366;12.350;2023-02-23T08:07:47;99966.50;;;9.36;96.17
66681;BME280;53575;51.366;12.350;2023-02-23T08:10:13;99970.78;;;9.47;96.04
66681;BME280;53575;51.366;12.350;2023-02-23T08:12:38;99968.09;;;9.53;95.62
66681;BME280;53575;51.366;12.350;2023-02-23T08:15:04;99964.63;;;9.53;95.17
66681;BME280;53575;51.366;12.350;2023-02-23T08:17:33;99963.75;;;9.56;95.44
66681;BME280;53575;51.366;12.350;2023-02-23T08:19:58;99968.00;;;9.67;95.19
66681;BME280;53575;51.366;12.350;2023-02-23T08:22:24;99961.88;;;9.74;94.80
66681;BME280;53575;51.366;12.350;2023-02-23T08:24:50;99951.25;;;9.94;94.00
66681;BME280;53575;51.366;12.350;2023-02-23T08:27:15;99969.47;;;10.00;94.17
66681;BME280;53575;51.366;12.350;2023-02-23T08:29:41;99966.75;;;10.10;93.86
66681;BME280;53575;51.366;12.350;2023-02-23T08:32:06;99971.88;;;10.20;93.84
66681;BME280;53575;51.366;12.350;2023-02-23T08:34:37;99976.03;;;10.41;92.56
66681;BME280;53575;51.366;12.350;2023-02-23T08:37:03;99974.22;;;10.49;91.75
66681;BME280;53575;51.366;12.350;2023-02-23T08:39:29;99964.63;;;10.50;91.32
66681;BME280;53575;51.366;12.350;2023-02-23T08:41:54;99975.00;;;10.56;90.92
66681;BME280;53575;51.366;12.350;2023-02-23T08:44:20;99961.91;;;10.59;90.86
66681;BME280;53575;51.366;12.350;2023-02-23T08:46:45;99964.53;;;10.59;90.67
66681;BME280;53575;51.366;12.350;2023-02-23T08:49:11;99968.94;;;10.54;90.90
66681;BME280;53575;51.366;12.350;2023-02-23T08:51:36;99962.94;;;10.46;90.12
66681;BME280;53575;51.366;12.350;2023-02-23T08:54:02;99962.91;;;10.47;90.97
66681;BME280;53575;51.366;12.350;2023-02-23T08:56:27;99964.63;;;10.50;91.24
66681;BME280;53575;51.366;12.350;2023-02-23T08:58:53;99957.47;;;10.64;90.25
66681;BME280;53575;51.366;12.350;2023-02-23T09:01:20;99956.69;;;10.59;90.49
66681;BME280;53575;51.366;12.350;2023-02-23T09:03:48;99967.69;;;10.86;90.13
66681;BME280;53575;51.366;12.350;2023-02-23T09:06:17;99966.81;;;10.85;90.04
66681;BME280;53575;51.366;12.350;2023-02-23T09:08:43;99968.13;;;11.18;88.97
66681;BME280;53575;51.366;12.350;2023-02-23T09:11:09;99969.59;;;11.36;87.50
66681;BME280;53575;51.366;12.350;2023-02-23T09:13:34;99969.78;;;11.24;87.01
66681;BME280;53575;51.366;12.350;2023-02-23T09:16:01;99983.91;;;11.11;87.85
66681;BME280;53575;51.366;12.350;2023-02-23T09:18:28;99984.75;;;11.14;87.19
66681;BME280;53575;51.366;12.350;2023-02-23T09:20:55;99986.44;;;11.18;87.19
66681;BME280;53575;51.366;12.350;2023-02-23T09:23:21;99982.16;;;11.11;87.27
66681;BME280;53575;51.366;12.350;2023-02-23T09:25:47;99980.38;;;11.15;87.64
66681;BME280;53575;51.366;12.350;2023-02-23T09:28:15;99977.47;;;11.35;87.21
66681;BME280;53575;51.366;12.350;2023-02-23T09:30:42;99978.19;;;11.44;87.01
66681;BME280;53575;51.366;12.350;2023-02-23T09:33:08;99971.81;;;11.64;86.42
66681;BME280;53575;51.366;12.350;2023-02-23T09:35:34;99970.22;;;11.54;86.61
66681;BME280;53575;51.366;12.350;2023-02-23T09:38:01;99977.03;;;11.62;86.24
66681;BME280;53575;51.366;12.350;2023-02-23T09:40:48;99977.69;;;11.77;85.94
66681;BME280;53575;51.366;12.350;2023-02-23T09:43:38;99974.94;;;11.86;85.75
66681;BME280;53575;51.366;12.350;2023-02-23T09:46:14;99971.16;;;12.04;84.55
66681;BME280;53575;51.366;12.350;2023-02-23T09:48:44;99976.00;;;12.25;82.86
66681;BME280;53575;51.366;12.350;2023-02-23T09:51:16;99980.31;;;12.28;83.47
66681;BME280;53575;51.366;12.350;2023-02-23T09:53:46;99983.66;;;12.37;82.17
66681;BME280;53575;51.366;12.350;2023-02-23T09:56:30;99983.66;;;12.36;82.06
66681;BME280;53575;51.366;12.350;2023-02-23T09:58:59;99987.06;;;12.39;81.77
66681;BME280;53575;51.366;12.350;2023-02-23T10:06:29;99990.00;;;12.69;82.22
66681;BME280;53575;51.366;12.350;2023-02-23T10:09:20;99991.00;;;12.63;81.54
66681;BME280;53575;51.366;12.350;2023-02-23T10:12:15;99990.56;;;12.85;81.41
66681;BME280;53575;51.366;12.350;2023-02-23T10:17:41;99991.47;;;12.84;81.14
66681;BME280;53575;51.366;12.350;2023-02-23T10:22:45;99987.47;;;12.64;81.79
66681;BME280;53575;51.366;12.350;2023-02-23T10:25:16;99991.47;;;12.84;81.85
66681;BME280;53575;51.366;12.350;2023-02-23T10:27:48;99994.78;;;12.93;80.78
66681;BME280;53575;51.366;12.350;2023-02-23T10:30:29;99993.66;;;13.04;80.59
66681;BME280;53575;51.366;12.350;2023-02-23T10:35:45;99989.44;;;12.97;80.53
66681;BME280;53575;51.366;12.350;2023-02-23T10:38:15;99988.03;;;12.80;81.28
66681;BME280;53575;51.366;12.350;2023-02-23T10:40:50;99985.53;;;12.74;81.25
66681;BME280;53575;51.366;12.350;2023-02-23T10:43:17;99986.31;;;12.78;80.34
66681;BME280;53575;51.366;12.350;2023-02-23T10:45:45;99989.16;;;12.68;80.60
66681;BME280;53575;51.366;12.350;2023-02-23T10:48:20;99991.88;;;13.06;80.34
66681;BME280;53575;51.366;12.350;2023-02-23T10:50:53;99990.91;;;13.10;77.82
66681;BME280;53575;51.366;12.350;2023-02-23T10:53:35;99984.28;;;13.34;76.52
66681;BME280;53575;51.366;12.350;2023-02-23T10:58:29;99980.50;;;13.47;76.81
66681;BME280;53575;51.366;12.350;2023-02-23T11:01:01;99984.84;;;13.47;76.39
66681;BME280;53575;51.366;12.350;2023-02-23T11:06:01;99979.00;;;13.35;75.26
66681;BME280;53575;51.366;12.350;2023-02-23T11:08:34;99989.66;;;13.28;75.80
66681;BME280;53575;51.366;12.350;2023-02-23T11:11:19;99982.09;;;13.53;75.28
66681;BME280;53575;51.366;12.350;2023-02-23T11:13:50;99974.66;;;13.72;73.68
66681;BME280;53575;51.366;12.350;2023-02-23T11:16:24;99974.34;;;13.48;73.92
66681;BME280;53575;51.366;12.350;2023-02-23T11:18:56;99972.31;;;13.21;75.93
66681;BME280;53575;51.366;12.350;2023-02-23T11:21:27;99963.16;;;13.40;76.09
66681;BME280;53575;51.366;12.350;2023-02-23T11:23:56;99966.22;;;13.57;75.94
66681;BME280;53575;51.366;12.350;2023-02-23T11:26:35;99959.63;;;13.78;73.64
66681;BME280;53575;51.366;12.350;2023-02-23T11:29:10;99957.66;;;13.86;72.96
66681;BME280;53575;51.366;12.350;2023-02-23T11:31:36;99951.94;;;13.71;74.28
66681;BME280;53575;51.366;12.350;2023-02-23T11:34:05;99947.47;;;14.08;73.27
66681;BME280;53575;51.366;12.350;2023-02-23T11:36:34;99949.09;;;14.12;72.98
66681;BME280;53575;51.366;12.350;2023-02-23T11:39:13;99945.50;;;14.15;71.28
66681;BME280;53575;51.366;12.350;2023-02-23T11:41:43;99950.38;;;13.98;71.60
66681;BME280;53575;51.366;12.350;2023-02-23T11:44:19;99939.97;;;14.26;70.99
66681;BME280;53575;51.366;12.350;2023-02-23T11:46:45;99943.09;;;14.40;71.06
66681;BME280;53575;51.366;12.350;2023-02-23T11:49:21;99934.44;;;14.36;70.50
66681;BME280;53575;51.366;12.350;2023-02-23T11:51:49;99939.69;;;14.04;72.37
66681;BME280;53575;51.366;12.350;2023-02-23T11:54:31;99936.16;;;14.05;72.80
66681;BME280;53575;51.366;12.350;2023-02-23T11:56:58;99933.22;;;14.15;73.04
66681;BME280;53575;51.366;12.350;2023-02-23T11:59:32;99928.91;;;14.46;71.78
66681;BME280;53575;51.366;12.350;2023-02-23T12:02:20;99928.63;;;14.56;70.55
66681;BME280;53575;51.366;12.350;2023-02-23T12:04:49;99929.47;;;14.26;70.80
66681;BME280;53575;51.366;12.350;2023-02-23T12:07:24;99929.88;;;14.10;70.60
66681;BME280;53575;51.366;12.350;2023-02-23T12:09:59;99935.97;;;13.78;70.52
66681;BME280;53575;51.366;12.350;2023-02-23T12:12:27;99937.75;;;13.78;70.39
66681;BME280;53575;51.366;12.350;2023-02-23T12:15:05;99931.59;;;13.77;71.17
66681;BME280;53575;51.366;12.350;2023-02-23T12:17:40;99929.88;;;13.78;70.33
66681;BME280;53575;51.366;12.350;2023-02-23T12:20:29;99924.63;;;13.76;70.38
66681;BME280;53575;51.366;12.350;2023-02-23T12:23:00;99924.50;;;13.81;69.78
66681;BME280;53575;51.366;12.350;2023-02-23T12:25:39;99924.75;;;13.72;71.62
66681;BME280;53575;51.366;12.350;2023-02-23T12:28:19;99933.09;;;13.53;71.64
66681;BME280;53575;51.366;12.350;2023-02-23T12:33:39;99916.44;;;13.88;71.41
66681;BME280;53575;51.366;12.350;2023-02-23T12:36:34;99916.34;;;13.93;71.61
66681;BME280;53575;51.366;12.350;2023-02-23T12:39:07;99916.41;;;13.90;71.86
66681;BME280;53575;51.366;12.350;2023-02-23T12:41:43;99909.78;;;13.75;72.25
66681;BME280;53575;51.366;12.350;2023-02-23T12:44:34;99913.66;;;13.60;72.35
66681;BME280;53575;51.366;12.350;2023-02-23T12:50:05;99916.22;;;13.62;72.85
66681;BME280;53575;51.366;12.350;2023-02-23T12:52:42;99912.88;;;13.57;73.06
66681;BME280;53575;51.366;12.350;2023-02-23T12:55:12;99905.84;;;13.59;73.46
66681;BME280;53575;51.366;12.350;2023-02-23T12:57:54;99912.19;;;13.49;74.35
66681;BME280;53575;51.366;12.350;2023-02-23T13:03:21;99912.53;;;13.35;74.03
66681;BME280;53575;51.366;12.350;2023-02-23T13:06:19;99906.34;;;13.37;74.52
66681;BME280;53575;51.366;12.350;2023-02-23T13:08:57;99912.69;;;13.29;74.99
66681;BME280;53575;51.366;12.350;2023-02-23T13:17:03;99915.28;;;12.90;77.07
66681;BME280;53575;51.366;12.350;2023-02-23T13:27:51;99907.97;;;12.64;81.11
66681;BME280;53575;51.366;12.350;2023-02-23T13:30:19;99909.81;;;12.15;83.08
66681;BME280;53575;51.366;12.350;2023-02-23T13:32:45;99907.75;;;12.33;83.35
66681;BME280;53575;51.366;12.350;2023-02-23T13:35:15;99906.97;;;12.28;82.96
66681;BME280;53575;51.366;12.350;2023-02-23T13:37:51;99905.03;;;12.36;82.45
66681;BME280;53575;51.366;12.350;2023-02-23T13:40:28;99896.00;;;12.51;81.62
66681;BME280;53575;51.366;12.350;2023-02-23T13:51:45;99897.22;;;12.76;80.28
66681;BME280;53575;51.366;12.350;2023-02-23T13:56:53;99892.25;;;13.03;79.42
66681;BME280;53575;51.366;12.350;2023-02-23T13:59:28;99894.81;;;13.06;79.14
66681;BME280;53575;51.366;12.350;2023-02-23T14:01:55;99897.22;;;13.15;79.28
66681;BME280;53575;51.366;12.350;2023-02-23T14:07:10;99890.03;;;12.86;80.17
66681;BME280;53575;51.366;12.350;2023-02-23T14:09:52;99892.31;;;13.01;79.82
66681;BME280;53575;51.366;12.350;2023-02-23T14:12:43;99889.41;;;13.12;79.62
66681;BME280;53575;51.366;12.350;2023-02-23T14:18:30;99892.03;;;13.12;79.84
66681;BME280;53575;51.366;12.350;2023-02-23T14:21:30;99891.66;;;12.91;80.83
66681;BME280;53575;51.366;12.350;2023-02-23T14:24:15;99886.56;;;12.84;81.39
66681;BME280;53575;51.366;12.350;2023-02-23T14:32:43;99888.53;;;12.74;82.03
66681;BME280;53575;51.366;12.350;2023-02-23T14:38:08;99883.09;;;12.82;81.33
66681;BME280;53575;51.366;12.350;2023-02-23T14:40:39;99886.63;;;12.82;80.99
66681;BME280;53575;51.366;12.350;2023-02-23T14:45:56;99886.63;;;12.82;81.23
66681;BME280;53575;51.366;12.350;2023-02-23T14:48:23;99881.50;;;12.76;81.76
66681;BME280;53575;51.366;12.350;2023-02-23T14:51:10;99878.81;;;12.78;81.89
66681;BME280;53575;51.366;12.350;2023-02-23T14:53:36;99876.66;;;12.58;83.23
66681;BME280;53575;51.366;12.350;2023-02-23T14:56:04;99878.72;;;12.42;84.34
66681;BME280;53575;51.366;12.350;2023-02-23T14:58:41;99881.34;;;12.42;84.40
66681;BME280;53575;51.366;12.350;2023-02-23T15:01:06;99883.06;;;12.43;84.58
66681;BME280;53575;51.366;12.350;2023-02-23T15:03:32;99876.22;;;12.36;85.30
66681;BME280;53575;51.366;12.350;2023-02-23T15:06:00;99874.00;;;12.17;86.35